sensor_id;sensor_type;location;lat;lon;timestamp;P1;durP1;ratioP1;P2;durP2;ratioP2
635;SDS011;302;50.206;8.196;2023-04-25T00:00:29;8.53;;;7.83;;
635;SDS011;302;50.206;8.196;2023-04-25T00:02:54;8.87;;;8.07;;
635;SDS011;302;50.206;8.196;2023-04-25T00:05:21;8.80;;;7.95;;
635;SDS011;302;50.206;8.196;2023-04-25T00:07:47;8.32;;;7.53;;
635;SDS011;302;50.206;8.196;2023-04-25T00:10:13;10.07;;;9.07;;
635;SDS011;302;50.206;8.196;2023-04-25T00:12:38;9.27;;;7.57;;
635;SDS011;302;50.206;8.196;2023-04-25T00:15:04;8.30;;;7.50;;
635;SDS011;302;50.206;8.196;2023-04-25T00:17:29;8.03;;;7.33;;
635;SDS011;302;50.206;8.196;2023-04-25T00:19:54;8.23;;;7.43;;
635;SDS011;302;50.206;8.196;2023-04-25T00:22:20;5.90;;;5.30;;
635;SDS011;302;50.206;8.196;2023-04-25T00:24:46;8.00;;;7.20;;
635;SDS011;302;50.206;8.196;2023-04-25T00:27:11;8.77;;;7.82;;
635;SDS011;302;50.206;8.196;2023-04-25T00:29:36;7.30;;;6.60;;
635;SDS011;302;50.206;8.196;2023-04-25T00:32:02;7.70;;;7.00;;
635;SDS011;302;50.206;8.196;2023-04-25T00:34:27;8.47;;;7.57;;
635;SDS011;302;50.206;8.196;2023-04-25T00:36:52;7.53;;;6.83;;
635;SDS011;302;50.206;8.196;2023-04-25T00:39:17;7.87;;;7.07;;
635;SDS011;302;50.206;8.196;2023-04-25T00:41:42;7.30;;;6.60;;
635;SDS011;302;50.206;8.196;2023-04-25T00:44:08;7.97;;;7.17;;
635;SDS011;302;50.206;8.196;2023-04-25T00:46:35;8.00;;;7.25;;
635;SDS011;302;50.206;8.196;2023-04-25T00:49:00;8.43;;;7.63;;
635;SDS011;302;50.206;8.196;2023-04-25T00:51:25;8.37;;;7.50;;
635;SDS011;302;50.206;8.196;2023-04-25T00:53:51;9.02;;;7.55;;
635;SDS011;302;50.206;8.196;2023-04-25T00:56:16;7.50;;;6.70;;
635;SDS011;302;50.206;8.196;2023-04-25T00:58:42;8.50;;;7.70;;
635;SDS011;302;50.206;8.196;2023-04-25T01:01:11;8.35;;;7.55;;
635;SDS011;302;50.206;8.196;2023-04-25T01:03:38;8.27;;;7.47;;
635;SDS011;302;50.206;8.196;2023-04-25T01:06:06;8.00;;;7.20;;
635;SDS011;302;50.206;8.196;2023-04-25T01:08:32;8.18;;;7.35;;
635;SDS011;302;50.206;8.196;2023-04-25T01:10:57;8.00;;;7.18;;
635;SDS011;302;50.206;8.196;2023-04-25T01:13:22;8.57;;;7.32;;
635;SDS011;302;50.206;8.196;2023-04-25T01:15:47;7.73;;;7.03;;
635;SDS011;302;50.206;8.196;2023-04-25T01:18:12;7.90;;;7.07;;
635;SDS011;302;50.206;8.196;2023-04-25T01:20:38;9.67;;;8.10;;
635;SDS011;302;50.206;8.196;2023-04-25T01:23:03;8.60;;;7.63;;
635;SDS011;302;50.206;8.196;2023-04-25T01:25:29;8.67;;;7.87;;
635;SDS011;302;50.206;8.196;2023-04-25T01:27:55;10.75;;;9.30;;
635;SDS011;302;50.206;8.196;2023-04-25T01:30:20;9.50;;;8.50;;
635;SDS011;302;50.206;8.196;2023-04-25T01:32:45;13.27;;;8.77;;
635;SDS011;302;50.206;8.196;2023-04-25T01:35:11;8.95;;;8.00;;
635;SDS011;302;50.206;8.196;2023-04-25T01:37:37;10.40;;;7.43;;
635;SDS011;302;50.206;8.196;2023-04-25T01:40:02;8.90;;;8.00;;
635;SDS011;302;50.206;8.196;2023-04-25T01:42:28;8.67;;;7.77;;
635;SDS011;302;50.206;8.196;2023-04-25T01:44:53;8.53;;;7.70;;
635;SDS011;302;50.206;8.196;2023-04-25T01:47:18;9.03;;;8.13;;
635;SDS011;302;50.206;8.196;2023-04-25T01:49:43;9.07;;;7.93;;
635;SDS011;302;50.206;8.196;2023-04-25T01:52:09;10.00;;;7.60;;
635;SDS011;302;50.206;8.196;2023-04-25T01:54:34;9.10;;;8.20;;
635;SDS011;302;50.206;8.196;2023-04-25T01:56:59;10.50;;;7.57;;
635;SDS011;302;50.206;8.196;2023-04-25T01:59:25;8.97;;;8.07;;
635;SDS011;302;50.206;8.196;2023-04-25T02:01:50;10.20;;;9.20;;
635;SDS011;302;50.206;8.196;2023-04-25T02:04:15;9.87;;;7.50;;
635;SDS011;302;50.206;8.196;2023-04-25T02:06:40;8.43;;;7.53;;
635;SDS011;302;50.206;8.196;2023-04-25T02:09:05;8.70;;;7.47;;
635;SDS011;302;50.206;8.196;2023-04-25T02:11:31;8.38;;;7.57;;
635;SDS011;302;50.206;8.196;2023-04-25T02:13:56;8.57;;;7.40;;
635;SDS011;302;50.206;8.196;2023-04-25T02:16:21;8.07;;;6.10;;
635;SDS011;302;50.206;8.196;2023-04-25T02:18:46;7.63;;;6.63;;
635;SDS011;302;50.206;8.196;2023-04-25T02:21:11;7.30;;;6.60;;
635;SDS011;302;50.206;8.196;2023-04-25T02:23:37;7.65;;;6.50;;
635;SDS011;302;50.206;8.196;2023-04-25T02:26:02;7.20;;;6.47;;
635;SDS011;302;50.206;8.196;2023-04-25T02:28:27;8.00;;;5.97;;
635;SDS011;302;50.206;8.196;2023-04-25T02:30:53;10.23;;;7.00;;
635;SDS011;302;50.206;8.196;2023-04-25T02:33:18;6.93;;;6.23;;
635;SDS011;302;50.206;8.196;2023-04-25T02:35:43;7.10;;;6.20;;
635;SDS011;302;50.206;8.196;2023-04-25T02:38:08;7.20;;;6.50;;
635;SDS011;302;50.206;8.196;2023-04-25T02:40:33;6.40;;;5.68;;
635;SDS011;302;50.206;8.196;2023-04-25T02:42:58;8.30;;;5.67;;
635;SDS011;302;50.206;8.196;2023-04-25T02:45:24;7.85;;;6.35;;
635;SDS011;302;50.206;8.196;2023-04-25T02:47:49;6.90;;;6.17;;
635;SDS011;302;50.206;8.196;2023-04-25T02:50:14;8.13;;;6.40;;
635;SDS011;302;50.206;8.196;2023-04-25T02:52:39;7.57;;;6.05;;
635;SDS011;302;50.206;8.196;2023-04-25T02:55:05;6.60;;;5.93;;
635;SDS011;302;50.206;8.196;2023-04-25T02:57:30;6.17;;;5.30;;
635;SDS011;302;50.206;8.196;2023-04-25T02:59:55;7.27;;;5.73;;
635;SDS011;302;50.206;8.196;2023-04-25T03:02:20;8.10;;;5.33;;
635;SDS011;302;50.206;8.196;2023-04-25T03:04:45;7.28;;;5.35;;
635;SDS011;302;50.206;8.196;2023-04-25T03:07:11;9.50;;;6.70;;
635;SDS011;302;50.206;8.196;2023-04-25T03:09:36;6.97;;;4.57;;
635;SDS011;302;50.206;8.196;2023-04-25T03:12:01;10.13;;;7.20;;
635;SDS011;302;50.206;8.196;2023-04-25T03:14:26;7.77;;;5.67;;
635;SDS011;302;50.206;8.196;2023-04-25T03:16:51;6.30;;;5.10;;
635;SDS011;302;50.206;8.196;2023-04-25T03:19:16;8.10;;;5.10;;
635;SDS011;302;50.206;8.196;2023-04-25T03:21:42;14.53;;;6.03;;
635;SDS011;302;50.206;8.196;2023-04-25T03:24:07;6.23;;;5.37;;
635;SDS011;302;50.206;8.196;2023-04-25T03:26:32;6.60;;;5.40;;
635;SDS011;302;50.206;8.196;2023-04-25T03:28:58;7.80;;;5.77;;
635;SDS011;302;50.206;8.196;2023-04-25T03:31:23;5.03;;;4.53;;
635;SDS011;302;50.206;8.196;2023-04-25T03:33:48;5.55;;;5.05;;
635;SDS011;302;50.206;8.196;2023-04-25T03:36:13;6.00;;;4.93;;
635;SDS011;302;50.206;8.196;2023-04-25T03:38:38;6.32;;;5.10;;
635;SDS011;302;50.206;8.196;2023-04-25T03:41:03;6.57;;;5.30;;
635;SDS011;302;50.206;8.196;2023-04-25T03:43:28;6.53;;;4.95;;
635;SDS011;302;50.206;8.196;2023-04-25T03:45:54;5.35;;;4.43;;
635;SDS011;302;50.206;8.196;2023-04-25T03:48:19;5.73;;;4.50;;
635;SDS011;302;50.206;8.196;2023-04-25T03:50:46;4.85;;;3.80;;
635;SDS011;302;50.206;8.196;2023-04-25T03:53:11;4.53;;;4.07;;
635;SDS011;302;50.206;8.196;2023-04-25T03:55:37;4.10;;;3.58;;
635;SDS011;302;50.206;8.196;2023-04-25T03:58:02;4.53;;;4.13;;
635;SDS011;302;50.206;8.196;2023-04-25T04:00:27;5.85;;;4.55;;
635;SDS011;302;50.206;8.196;2023-04-25T04:02:52;4.43;;;4.03;;
635;SDS011;302;50.206;8.196;2023-04-25T04:05:17;5.90;;;4.10;;
635;SDS011;302;50.206;8.196;2023-04-25T04:07:43;6.33;;;4.30;;
635;SDS011;302;50.206;8.196;2023-04-25T04:10:09;5.87;;;4.53;;
635;SDS011;302;50.206;8.196;2023-04-25T04:12:34;7.47;;;4.80;;
635;SDS011;302;50.206;8.196;2023-04-25T04:14:59;5.37;;;4.37;;
635;SDS011;302;50.206;8.196;2023-04-25T04:17:24;4.80;;;4.30;;
635;SDS011;302;50.206;8.196;2023-04-25T04:19:50;5.23;;;4.70;;
635;SDS011;302;50.206;8.196;2023-04-25T04:22:15;6.23;;;4.27;;
635;SDS011;302;50.206;8.196;2023-04-25T04:24:40;5.70;;;4.53;;
635;SDS011;302;50.206;8.196;2023-04-25T04:27:08;8.38;;;5.45;;
635;SDS011;302;50.206;8.196;2023-04-25T04:29:34;4.60;;;4.07;;
635;SDS011;302;50.206;8.196;2023-04-25T04:31:59;5.97;;;4.13;;
635;SDS011;302;50.206;8.196;2023-04-25T04:34:26;7.38;;;5.38;;
635;SDS011;302;50.206;8.196;2023-04-25T04:36:52;7.90;;;6.10;;
635;SDS011;302;50.206;8.196;2023-04-25T04:39:17;5.90;;;4.00;;
635;SDS011;302;50.206;8.196;2023-04-25T04:41:42;8.10;;;5.55;;
635;SDS011;302;50.206;8.196;2023-04-25T04:44:07;6.80;;;5.80;;
635;SDS011;302;50.206;8.196;2023-04-25T04:46:33;5.35;;;4.35;;
635;SDS011;302;50.206;8.196;2023-04-25T04:49:06;7.78;;;4.90;;
635;SDS011;302;50.206;8.196;2023-04-25T04:51:31;7.97;;;5.07;;
635;SDS011;302;50.206;8.196;2023-04-25T04:53:57;5.83;;;5.23;;
635;SDS011;302;50.206;8.196;2023-04-25T04:56:23;7.22;;;5.32;;
635;SDS011;302;50.206;8.196;2023-04-25T04:58:50;6.32;;;5.25;;
635;SDS011;302;50.206;8.196;2023-04-25T05:01:15;6.77;;;5.23;;
635;SDS011;302;50.206;8.196;2023-04-25T05:03:41;9.93;;;5.93;;
635;SDS011;302;50.206;8.196;2023-04-25T05:06:06;8.55;;;5.57;;
635;SDS011;302;50.206;8.196;2023-04-25T05:08:31;8.67;;;5.57;;
635;SDS011;302;50.206;8.196;2023-04-25T05:10:56;6.43;;;4.70;;
635;SDS011;302;50.206;8.196;2023-04-25T05:13:21;7.27;;;5.67;;
635;SDS011;302;50.206;8.196;2023-04-25T05:15:46;11.00;;;5.43;;
635;SDS011;302;50.206;8.196;2023-04-25T05:18:12;6.68;;;4.55;;
635;SDS011;302;50.206;8.196;2023-04-25T05:20:37;13.87;;;7.00;;
635;SDS011;302;50.206;8.196;2023-04-25T05:23:02;9.43;;;5.80;;
635;SDS011;302;50.206;8.196;2023-04-25T05:25:27;8.30;;;4.90;;
635;SDS011;302;50.206;8.196;2023-04-25T05:27:52;9.50;;;6.50;;
635;SDS011;302;50.206;8.196;2023-04-25T05:30:17;6.03;;;4.40;;
635;SDS011;302;50.206;8.196;2023-04-25T05:32:43;8.88;;;5.53;;
635;SDS011;302;50.206;8.196;2023-04-25T05:35:08;7.78;;;5.05;;
635;SDS011;302;50.206;8.196;2023-04-25T05:37:33;7.37;;;4.77;;
635;SDS011;302;50.206;8.196;2023-04-25T05:39:58;6.22;;;5.30;;
635;SDS011;302;50.206;8.196;2023-04-25T05:42:24;5.90;;;4.80;;
635;SDS011;302;50.206;8.196;2023-04-25T05:44:49;6.43;;;5.30;;
635;SDS011;302;50.206;8.196;2023-04-25T05:47:14;5.93;;;5.20;;
635;SDS011;302;50.206;8.196;2023-04-25T05:49:40;7.80;;;5.17;;
635;SDS011;302;50.206;8.196;2023-04-25T05:52:05;7.90;;;5.10;;
635;SDS011;302;50.206;8.196;2023-04-25T05:54:30;7.10;;;5.87;;
635;SDS011;302;50.206;8.196;2023-04-25T05:56:58;6.70;;;5.20;;
635;SDS011;302;50.206;8.196;2023-04-25T05:59:24;7.85;;;5.30;;
635;SDS011;302;50.206;8.196;2023-04-25T06:01:49;8.23;;;5.47;;
635;SDS011;302;50.206;8.196;2023-04-25T06:04:14;7.77;;;5.33;;
635;SDS011;302;50.206;8.196;2023-04-25T06:06:39;11.93;;;5.40;;
635;SDS011;302;50.206;8.196;2023-04-25T06:09:04;5.93;;;4.63;;
635;SDS011;302;50.206;8.196;2023-04-25T06:11:30;7.43;;;4.40;;
635;SDS011;302;50.206;8.196;2023-04-25T06:13:55;6.20;;;5.32;;
635;SDS011;302;50.206;8.196;2023-04-25T06:16:20;6.83;;;5.20;;
635;SDS011;302;50.206;8.196;2023-04-25T06:18:45;5.23;;;4.73;;
635;SDS011;302;50.206;8.196;2023-04-25T06:21:10;7.28;;;4.78;;
635;SDS011;302;50.206;8.196;2023-04-25T06:23:35;6.38;;;5.07;;
635;SDS011;302;50.206;8.196;2023-04-25T06:26:01;5.30;;;4.80;;
635;SDS011;302;50.206;8.196;2023-04-25T06:28:26;5.30;;;4.20;;
635;SDS011;302;50.206;8.196;2023-04-25T06:30:51;4.53;;;4.10;;
635;SDS011;302;50.206;8.196;2023-04-25T06:33:16;5.97;;;4.40;;
635;SDS011;302;50.206;8.196;2023-04-25T06:35:41;6.53;;;3.93;;
635;SDS011;302;50.206;8.196;2023-04-25T06:38:07;5.50;;;4.23;;
635;SDS011;302;50.206;8.196;2023-04-25T06:40:32;4.30;;;3.88;;
635;SDS011;302;50.206;8.196;2023-04-25T06:42:57;6.50;;;3.93;;
635;SDS011;302;50.206;8.196;2023-04-25T06:45:22;4.30;;;3.30;;
635;SDS011;302;50.206;8.196;2023-04-25T06:47:47;4.20;;;3.80;;
635;SDS011;302;50.206;8.196;2023-04-25T06:50:12;4.60;;;3.40;;
635;SDS011;302;50.206;8.196;2023-04-25T06:52:37;5.07;;;3.38;;
635;SDS011;302;50.206;8.196;2023-04-25T06:55:03;5.78;;;3.58;;
635;SDS011;302;50.206;8.196;2023-04-25T06:57:29;5.03;;;3.58;;
635;SDS011;302;50.206;8.196;2023-04-25T06:59:55;4.63;;;4.03;;
635;SDS011;302;50.206;8.196;2023-04-25T07:02:20;3.83;;;3.28;;
635;SDS011;302;50.206;8.196;2023-04-25T07:04:46;10.55;;;5.43;;
635;SDS011;302;50.206;8.196;2023-04-25T07:07:11;3.87;;;3.57;;
635;SDS011;302;50.206;8.196;2023-04-25T07:09:36;3.40;;;3.10;;
635;SDS011;302;50.206;8.196;2023-04-25T07:12:02;4.53;;;3.40;;
635;SDS011;302;50.206;8.196;2023-04-25T07:14:27;4.47;;;3.90;;
635;SDS011;302;50.206;8.196;2023-04-25T07:16:53;4.73;;;3.53;;
635;SDS011;302;50.206;8.196;2023-04-25T07:19:18;4.87;;;4.20;;
635;SDS011;302;50.206;8.196;2023-04-25T07:21:43;3.73;;;3.43;;
635;SDS011;302;50.206;8.196;2023-04-25T07:24:08;3.07;;;2.77;;
635;SDS011;302;50.206;8.196;2023-04-25T07:26:34;3.27;;;2.80;;
635;SDS011;302;50.206;8.196;2023-04-25T07:28:59;3.60;;;3.30;;
635;SDS011;302;50.206;8.196;2023-04-25T07:31:24;4.90;;;3.20;;
635;SDS011;302;50.206;8.196;2023-04-25T07:33:49;3.43;;;3.07;;
635;SDS011;302;50.206;8.196;2023-04-25T07:36:15;3.00;;;2.80;;
635;SDS011;302;50.206;8.196;2023-04-25T07:38:40;4.23;;;3.17;;
635;SDS011;302;50.206;8.196;2023-04-25T07:41:05;4.43;;;3.03;;
635;SDS011;302;50.206;8.196;2023-04-25T07:43:30;3.40;;;3.10;;
635;SDS011;302;50.206;8.196;2023-04-25T07:45:56;3.38;;;3.05;;
635;SDS011;302;50.206;8.196;2023-04-25T07:48:21;3.10;;;2.80;;
635;SDS011;302;50.206;8.196;2023-04-25T07:50:46;3.90;;;2.40;;
635;SDS011;302;50.206;8.196;2023-04-25T07:53:11;3.40;;;3.10;;
635;SDS011;302;50.206;8.196;2023-04-25T07:55:37;3.60;;;3.00;;
635;SDS011;302;50.206;8.196;2023-04-25T07:58:05;2.78;;;2.58;;
635;SDS011;302;50.206;8.196;2023-04-25T08:00:30;5.10;;;3.60;;
635;SDS011;302;50.206;8.196;2023-04-25T08:02:55;3.35;;;3.00;;
635;SDS011;302;50.206;8.196;2023-04-25T08:05:20;4.67;;;3.40;;
635;SDS011;302;50.206;8.196;2023-04-25T08:07:46;3.73;;;3.43;;
635;SDS011;302;50.206;8.196;2023-04-25T08:10:11;4.13;;;3.73;;
635;SDS011;302;50.206;8.196;2023-04-25T08:12:36;4.20;;;3.80;;
635;SDS011;302;50.206;8.196;2023-04-25T08:15:01;4.50;;;4.10;;
635;SDS011;302;50.206;8.196;2023-04-25T08:17:26;4.43;;;3.67;;
635;SDS011;302;50.206;8.196;2023-04-25T08:19:52;4.50;;;3.90;;
635;SDS011;302;50.206;8.196;2023-04-25T08:22:17;4.05;;;3.75;;
635;SDS011;302;50.206;8.196;2023-04-25T08:24:42;4.68;;;4.13;;
635;SDS011;302;50.206;8.196;2023-04-25T08:27:07;6.40;;;4.87;;
635;SDS011;302;50.206;8.196;2023-04-25T08:29:33;4.15;;;3.30;;
635;SDS011;302;50.206;8.196;2023-04-25T08:31:58;4.83;;;4.33;;
635;SDS011;302;50.206;8.196;2023-04-25T08:34:23;4.53;;;4.13;;
635;SDS011;302;50.206;8.196;2023-04-25T08:36:50;4.75;;;3.55;;
635;SDS011;302;50.206;8.196;2023-04-25T08:39:15;4.87;;;4.37;;
635;SDS011;302;50.206;8.196;2023-04-25T08:41:41;5.77;;;4.60;;
635;SDS011;302;50.206;8.196;2023-04-25T08:44:06;4.57;;;3.77;;
635;SDS011;302;50.206;8.196;2023-04-25T08:46:33;4.72;;;4.25;;
635;SDS011;302;50.206;8.196;2023-04-25T08:49:00;10.03;;;4.47;;
635;SDS011;302;50.206;8.196;2023-04-25T08:51:26;4.40;;;4.00;;
635;SDS011;302;50.206;8.196;2023-04-25T08:53:53;4.40;;;4.00;;
635;SDS011;302;50.206;8.196;2023-04-25T08:56:18;4.40;;;4.00;;
635;SDS011;302;50.206;8.196;2023-04-25T08:58:46;4.40;;;3.50;;
635;SDS011;302;50.206;8.196;2023-04-25T09:01:12;4.88;;;3.97;;
635;SDS011;302;50.206;8.196;2023-04-25T09:03:37;5.83;;;4.17;;
635;SDS011;302;50.206;8.196;2023-04-25T09:06:03;3.70;;;3.40;;
635;SDS011;302;50.206;8.196;2023-04-25T09:08:28;4.10;;;3.70;;
635;SDS011;302;50.206;8.196;2023-04-25T09:10:53;4.13;;;3.60;;
635;SDS011;302;50.206;8.196;2023-04-25T09:13:24;4.37;;;3.77;;
635;SDS011;302;50.206;8.196;2023-04-25T09:15:57;4.15;;;3.75;;
635;SDS011;302;50.206;8.196;2023-04-25T09:18:29;3.85;;;3.53;;
635;SDS011;302;50.206;8.196;2023-04-25T09:20:56;4.03;;;3.72;;
635;SDS011;302;50.206;8.196;2023-04-25T09:23:21;4.50;;;4.10;;
635;SDS011;302;50.206;8.196;2023-04-25T09:25:48;5.07;;;4.00;;
635;SDS011;302;50.206;8.196;2023-04-25T09:28:13;4.10;;;3.70;;
635;SDS011;302;50.206;8.196;2023-04-25T09:30:38;4.20;;;3.77;;
635;SDS011;302;50.206;8.196;2023-04-25T09:33:09;3.83;;;3.50;;
635;SDS011;302;50.206;8.196;2023-04-25T09:35:35;3.90;;;3.60;;
635;SDS011;302;50.206;8.196;2023-04-25T09:38:00;4.63;;;4.17;;
635;SDS011;302;50.206;8.196;2023-04-25T09:40:25;3.40;;;3.10;;
635;SDS011;302;50.206;8.196;2023-04-25T09:42:51;5.70;;;3.90;;
635;SDS011;302;50.206;8.196;2023-04-25T09:45:16;4.13;;;3.83;;
635;SDS011;302;50.206;8.196;2023-04-25T09:47:41;5.47;;;4.93;;
635;SDS011;302;50.206;8.196;2023-04-25T09:50:15;4.80;;;4.20;;
635;SDS011;302;50.206;8.196;2023-04-25T09:52:40;3.90;;;3.60;;
635;SDS011;302;50.206;8.196;2023-04-25T09:55:06;4.33;;;3.30;;
635;SDS011;302;50.206;8.196;2023-04-25T09:57:31;3.60;;;3.30;;
635;SDS011;302;50.206;8.196;2023-04-25T09:59:56;3.90;;;3.60;;
635;SDS011;302;50.206;8.196;2023-04-25T10:02:22;3.20;;;2.90;;
635;SDS011;302;50.206;8.196;2023-04-25T10:04:54;3.72;;;3.42;;
635;SDS011;302;50.206;8.196;2023-04-25T10:07:20;4.95;;;3.10;;
635;SDS011;302;50.206;8.196;2023-04-25T10:09:48;4.05;;;2.85;;
635;SDS011;302;50.206;8.196;2023-04-25T10:12:15;4.28;;;3.20;;
635;SDS011;302;50.206;8.196;2023-04-25T10:14:41;3.33;;;3.03;;
635;SDS011;302;50.206;8.196;2023-04-25T10:17:07;3.60;;;3.30;;
635;SDS011;302;50.206;8.196;2023-04-25T10:19:34;3.15;;;2.95;;
635;SDS011;302;50.206;8.196;2023-04-25T10:22:11;3.43;;;3.13;;
635;SDS011;302;50.206;8.196;2023-04-25T10:24:38;4.95;;;2.78;;
635;SDS011;302;50.206;8.196;2023-04-25T10:27:04;6.20;;;3.40;;
635;SDS011;302;50.206;8.196;2023-04-25T10:29:29;4.07;;;3.77;;
635;SDS011;302;50.206;8.196;2023-04-25T10:31:54;3.77;;;2.63;;
635;SDS011;302;50.206;8.196;2023-04-25T10:34:23;3.50;;;3.20;;
635;SDS011;302;50.206;8.196;2023-04-25T10:36:50;3.17;;;2.92;;
635;SDS011;302;50.206;8.196;2023-04-25T10:39:21;5.55;;;3.35;;
635;SDS011;302;50.206;8.196;2023-04-25T10:41:47;3.63;;;3.15;;
635;SDS011;302;50.206;8.196;2023-04-25T10:44:13;3.95;;;3.50;;
635;SDS011;302;50.206;8.196;2023-04-25T10:46:38;3.57;;;3.27;;
635;SDS011;302;50.206;8.196;2023-04-25T10:49:03;3.90;;;2.58;;
635;SDS011;302;50.206;8.196;2023-04-25T10:51:29;4.40;;;2.97;;
635;SDS011;302;50.206;8.196;2023-04-25T10:56:21;3.38;;;3.08;;
635;SDS011;302;50.206;8.196;2023-04-25T10:58:47;4.63;;;3.00;;
635;SDS011;302;50.206;8.196;2023-04-25T11:01:19;6.70;;;3.47;;
635;SDS011;302;50.206;8.196;2023-04-25T11:03:44;5.00;;;3.17;;
635;SDS011;302;50.206;8.196;2023-04-25T11:06:22;4.63;;;3.10;;
635;SDS011;302;50.206;8.196;2023-04-25T11:08:48;3.05;;;2.85;;
635;SDS011;302;50.206;8.196;2023-04-25T11:11:15;5.45;;;2.67;;
635;SDS011;302;50.206;8.196;2023-04-25T11:13:40;3.47;;;3.13;;
635;SDS011;302;50.206;8.196;2023-04-25T11:16:08;2.80;;;2.30;;
635;SDS011;302;50.206;8.196;2023-04-25T11:18:34;3.53;;;2.70;;
635;SDS011;302;50.206;8.196;2023-04-25T11:20:59;3.57;;;3.27;;
635;SDS011;302;50.206;8.196;2023-04-25T11:23:24;3.87;;;2.60;;
635;SDS011;302;50.206;8.196;2023-04-25T11:25:51;5.35;;;3.10;;
635;SDS011;302;50.206;8.196;2023-04-25T11:28:20;3.83;;;2.45;;
635;SDS011;302;50.206;8.196;2023-04-25T11:30:49;4.85;;;3.17;;
635;SDS011;302;50.206;8.196;2023-04-25T11:33:15;3.70;;;2.67;;
635;SDS011;302;50.206;8.196;2023-04-25T11:35:40;4.57;;;3.10;;
635;SDS011;302;50.206;8.196;2023-04-25T11:38:05;3.10;;;2.83;;
635;SDS011;302;50.206;8.196;2023-04-25T11:40:31;2.60;;;2.40;;
635;SDS011;302;50.206;8.196;2023-04-25T11:42:56;3.10;;;2.73;;
635;SDS011;302;50.206;8.196;2023-04-25T11:45:24;2.92;;;2.05;;
635;SDS011;302;50.206;8.196;2023-04-25T11:47:49;2.90;;;2.10;;
635;SDS011;302;50.206;8.196;2023-04-25T11:50:15;3.80;;;2.73;;
635;SDS011;302;50.206;8.196;2023-04-25T11:52:44;2.80;;;2.60;;
635;SDS011;302;50.206;8.196;2023-04-25T11:55:10;3.33;;;2.72;;
635;SDS011;302;50.206;8.196;2023-04-25T11:57:38;2.80;;;2.58;;
635;SDS011;302;50.206;8.196;2023-04-25T12:00:10;2.88;;;2.30;;
635;SDS011;302;50.206;8.196;2023-04-25T12:02:36;3.03;;;2.40;;
635;SDS011;302;50.206;8.196;2023-04-25T12:05:01;2.60;;;2.40;;
635;SDS011;302;50.206;8.196;2023-04-25T12:07:30;2.80;;;2.47;;
635;SDS011;302;50.206;8.196;2023-04-25T12:09:56;3.17;;;2.60;;
635;SDS011;302;50.206;8.196;2023-04-25T12:12:21;2.70;;;2.40;;
635;SDS011;302;50.206;8.196;2023-04-25T12:14:47;2.70;;;2.50;;
635;SDS011;302;50.206;8.196;2023-04-25T12:17:16;3.80;;;3.30;;
635;SDS011;302;50.206;8.196;2023-04-25T12:19:41;3.30;;;2.90;;
635;SDS011;302;50.206;8.196;2023-04-25T12:22:18;3.50;;;2.60;;
635;SDS011;302;50.206;8.196;2023-04-25T12:24:44;3.45;;;2.83;;
635;SDS011;302;50.206;8.196;2023-04-25T12:27:10;4.07;;;3.03;;
635;SDS011;302;50.206;8.196;2023-04-25T12:29:35;4.80;;;2.83;;
635;SDS011;302;50.206;8.196;2023-04-25T12:32:00;3.63;;;2.80;;
635;SDS011;302;50.206;8.196;2023-04-25T12:34:28;3.67;;;2.85;;
635;SDS011;302;50.206;8.196;2023-04-25T12:36:53;3.30;;;3.08;;
635;SDS011;302;50.206;8.196;2023-04-25T12:39:20;2.83;;;2.63;;
635;SDS011;302;50.206;8.196;2023-04-25T12:41:47;3.45;;;3.15;;
635;SDS011;302;50.206;8.196;2023-04-25T12:44:12;4.13;;;3.50;;
635;SDS011;302;50.206;8.196;2023-04-25T12:46:38;3.17;;;2.97;;
635;SDS011;302;50.206;8.196;2023-04-25T12:49:03;3.37;;;2.83;;
635;SDS011;302;50.206;8.196;2023-04-25T12:51:29;2.70;;;2.43;;
635;SDS011;302;50.206;8.196;2023-04-25T12:53:54;3.70;;;2.60;;
635;SDS011;302;50.206;8.196;2023-04-25T12:56:20;2.73;;;2.50;;
635;SDS011;302;50.206;8.196;2023-04-25T12:58:45;3.60;;;3.30;;
635;SDS011;302;50.206;8.196;2023-04-25T13:01:11;3.40;;;3.10;;
635;SDS011;302;50.206;8.196;2023-04-25T13:03:37;3.35;;;3.05;;
635;SDS011;302;50.206;8.196;2023-04-25T13:06:02;2.57;;;2.30;;
635;SDS011;302;50.206;8.196;2023-04-25T13:08:27;2.77;;;2.47;;
635;SDS011;302;50.206;8.196;2023-04-25T13:10:53;2.60;;;2.40;;
635;SDS011;302;50.206;8.196;2023-04-25T13:13:18;5.00;;;3.10;;
635;SDS011;302;50.206;8.196;2023-04-25T13:15:43;2.80;;;2.60;;
635;SDS011;302;50.206;8.196;2023-04-25T13:18:08;3.70;;;3.03;;
635;SDS011;302;50.206;8.196;2023-04-25T13:20:33;2.90;;;2.63;;
635;SDS011;302;50.206;8.196;2023-04-25T13:22:59;3.20;;;2.60;;
635;SDS011;302;50.206;8.196;2023-04-25T13:25:24;2.73;;;2.50;;
635;SDS011;302;50.206;8.196;2023-04-25T13:27:49;3.07;;;2.50;;
635;SDS011;302;50.206;8.196;2023-04-25T13:30:15;3.53;;;2.40;;
635;SDS011;302;50.206;8.196;2023-04-25T13:32:40;2.33;;;2.13;;
635;SDS011;302;50.206;8.196;2023-04-25T13:35:08;2.80;;;2.50;;
635;SDS011;302;50.206;8.196;2023-04-25T13:37:34;3.30;;;2.75;;
635;SDS011;302;50.206;8.196;2023-04-25T13:40:03;2.72;;;1.98;;
635;SDS011;302;50.206;8.196;2023-04-25T13:42:29;2.60;;;2.40;;
635;SDS011;302;50.206;8.196;2023-04-25T13:44:55;3.77;;;2.70;;
635;SDS011;302;50.206;8.196;2023-04-25T13:47:20;2.03;;;1.83;;
635;SDS011;302;50.206;8.196;2023-04-25T13:49:45;2.63;;;2.00;;
635;SDS011;302;50.206;8.196;2023-04-25T13:52:10;3.80;;;1.90;;
635;SDS011;302;50.206;8.196;2023-04-25T13:54:35;2.58;;;2.20;;
635;SDS011;302;50.206;8.196;2023-04-25T13:57:00;2.40;;;2.20;;
635;SDS011;302;50.206;8.196;2023-04-25T13:59:26;4.37;;;1.93;;
635;SDS011;302;50.206;8.196;2023-04-25T14:01:52;3.40;;;2.90;;
635;SDS011;302;50.206;8.196;2023-04-25T14:04:17;3.08;;;2.20;;
635;SDS011;302;50.206;8.196;2023-04-25T14:06:42;3.20;;;2.60;;
635;SDS011;302;50.206;8.196;2023-04-25T14:09:07;4.93;;;2.60;;
635;SDS011;302;50.206;8.196;2023-04-25T14:11:35;2.75;;;2.28;;
635;SDS011;302;50.206;8.196;2023-04-25T14:14:00;3.27;;;2.97;;
635;SDS011;302;50.206;8.196;2023-04-25T14:16:25;3.65;;;2.72;;
635;SDS011;302;50.206;8.196;2023-04-25T14:18:51;2.47;;;2.27;;
635;SDS011;302;50.206;8.196;2023-04-25T14:21:16;2.67;;;2.47;;
635;SDS011;302;50.206;8.196;2023-04-25T14:23:41;3.17;;;2.88;;
635;SDS011;302;50.206;8.196;2023-04-25T14:26:06;3.20;;;2.67;;
635;SDS011;302;50.206;8.196;2023-04-25T14:28:31;2.43;;;2.20;;
635;SDS011;302;50.206;8.196;2023-04-25T14:30:57;3.90;;;2.13;;
635;SDS011;302;50.206;8.196;2023-04-25T14:33:22;2.60;;;2.40;;
635;SDS011;302;50.206;8.196;2023-04-25T14:35:48;2.92;;;2.20;;
635;SDS011;302;50.206;8.196;2023-04-25T14:38:13;2.22;;;2.03;;
635;SDS011;302;50.206;8.196;2023-04-25T14:40:39;2.60;;;2.17;;
635;SDS011;302;50.206;8.196;2023-04-25T14:43:04;4.30;;;2.67;;
635;SDS011;302;50.206;8.196;2023-04-25T14:45:30;3.53;;;1.87;;
635;SDS011;302;50.206;8.196;2023-04-25T14:47:55;2.57;;;2.37;;
635;SDS011;302;50.206;8.196;2023-04-25T14:50:20;2.63;;;1.80;;
635;SDS011;302;50.206;8.196;2023-04-25T14:52:45;2.20;;;2.00;;
635;SDS011;302;50.206;8.196;2023-04-25T14:55:11;3.07;;;2.20;;
635;SDS011;302;50.206;8.196;2023-04-25T14:57:36;6.33;;;2.53;;
635;SDS011;302;50.206;8.196;2023-04-25T15:00:02;2.10;;;1.90;;
635;SDS011;302;50.206;8.196;2023-04-25T15:02:29;5.32;;;2.35;;
635;SDS011;302;50.206;8.196;2023-04-25T15:04:55;2.50;;;2.20;;
635;SDS011;302;50.206;8.196;2023-04-25T15:07:20;2.53;;;2.03;;
635;SDS011;302;50.206;8.196;2023-04-25T15:09:47;4.70;;;1.90;;
635;SDS011;302;50.206;8.196;2023-04-25T15:12:12;1.90;;;1.70;;
635;SDS011;302;50.206;8.196;2023-04-25T15:14:38;2.37;;;2.17;;
635;SDS011;302;50.206;8.196;2023-04-25T15:17:03;2.38;;;2.17;;
635;SDS011;302;50.206;8.196;2023-04-25T15:19:28;3.37;;;1.90;;
635;SDS011;302;50.206;8.196;2023-04-25T15:21:53;2.30;;;2.07;;
635;SDS011;302;50.206;8.196;2023-04-25T15:24:18;2.80;;;2.00;;
635;SDS011;302;50.206;8.196;2023-04-25T15:26:44;3.00;;;2.10;;
635;SDS011;302;50.206;8.196;2023-04-25T15:29:10;2.95;;;2.10;;
635;SDS011;302;50.206;8.196;2023-04-25T15:31:36;3.00;;;1.90;;
635;SDS011;302;50.206;8.196;2023-04-25T15:34:01;3.00;;;1.60;;
635;SDS011;302;50.206;8.196;2023-04-25T15:36:27;2.60;;;1.53;;